createdAt,value
2023-01-31T00:00:31.594Z,99832.05
2023-01-31T00:02:59.533Z,99834.09
2023-01-31T00:05:27.551Z,99830.48
2023-01-31T00:07:56.036Z,99827.35
2023-01-31T00:10:24.648Z,99820.42
2023-01-31T00:12:53.458Z,99817.52
2023-01-31T00:15:21.747Z,99817.75
2023-01-31T00:17:49.846Z,99816.59
2023-01-31T00:20:18.951Z,99811.91
2023-01-31T00:22:47.110Z,99804.73
2023-01-31T00:25:15.419Z,99796.66
2023-01-31T00:27:43.573Z,99796.09
2023-01-31T00:30:13.138Z,99797.49
2023-01-31T00:32:41.117Z,99798.71
2023-01-31T00:35:09.258Z,99793.65
2023-01-31T00:37:37.571Z,99791.48
2023-01-31T00:40:06.768Z,99794.52
2023-01-31T00:42:35.535Z,99790.88
2023-01-31T00:45:04.423Z,99794.55
2023-01-31T00:47:32.714Z,99797.91
2023-01-31T00:50:01.097Z,99794.43
2023-01-31T00:52:29.940Z,99786.13
2023-01-31T00:54:58.112Z,99782.84
2023-01-31T00:57:26.539Z,99782.24
2023-01-31T00:59:55.406Z,99785.99
2023-01-31T01:02:23.623Z,99783.59
2023-01-31T01:04:52.645Z,99783.23
2023-01-31T01:07:20.683Z,99784.09
2023-01-31T01:09:48.607Z,99785.46
2023-01-31T01:12:16.776Z,99783.77
2023-01-31T01:14:45.585Z,99781.44
2023-01-31T01:17:13.557Z,99779.68
2023-01-31T01:19:41.793Z,99778.29
2023-01-31T01:22:09.738Z,99783.25
2023-01-31T01:24:37.818Z,99783.17
2023-01-31T01:27:06.046Z,99781.13
2023-01-31T01:29:34.208Z,99780.73
2023-01-31T01:32:02.920Z,99775.68
2023-01-31T01:34:32.826Z,99773.21
2023-01-31T01:37:01.298Z,99768.09
2023-01-31T01:39:30.529Z,99771.39
2023-01-31T01:41:59.258Z,99773.36
2023-01-31T01:45:02.611Z,99775.59
2023-01-31T01:47:50.942Z,99777.11
2023-01-31T01:50:51.799Z,99776.95
2023-01-31T01:53:23.248Z,99777.80
2023-01-31T01:55:56.458Z,99773.60
2023-01-31T01:58:29.042Z,99766.07
2023-01-31T02:00:57.335Z,99763.64
2023-01-31T02:03:26.116Z,99765.49
2023-01-31T02:05:56.547Z,99772.16
2023-01-31T02:08:26.574Z,99774.14
2023-01-31T02:11:01.585Z,99770.30
2023-01-31T02:13:30.521Z,99764.64
2023-01-31T02:15:58.658Z,99758.55
2023-01-31T02:18:27.824Z,99756.54
2023-01-31T02:21:30.979Z,99755.96
2023-01-31T02:24:17.641Z,99756.57
2023-01-31T02:27:13.643Z,99754.61
2023-01-31T02:30:08.595Z,99745.21
2023-01-31T02:33:08.283Z,99749.88
2023-01-31T02:35:51.903Z,99754.02
2023-01-31T02:38:53.899Z,99752.90
2023-01-31T02:41:28.629Z,99753.29
2023-01-31T02:44:45.215Z,99750.45
2023-01-31T02:47:52.809Z,99749.23
2023-01-31T02:50:30.671Z,99748.31
2023-01-31T02:53:07.186Z,99745.69
2023-01-31T02:56:01.704Z,99744.84
2023-01-31T02:58:33.803Z,99740.89
2023-01-31T03:01:04.215Z,99749.57
2023-01-31T03:03:34.804Z,99744.79
2023-01-31T03:06:24.785Z,99748.81
2023-01-31T03:09:22.260Z,99745.27
2023-01-31T03:12:05.886Z,99744.89
2023-01-31T03:14:45.880Z,99743.77
2023-01-31T03:17:58.931Z,99748.09
2023-01-31T03:20:38.256Z,99751.92
2023-01-31T03:23:12.014Z,99755.98
2023-01-31T03:25:40.659Z,99759.51
2023-01-31T03:28:11.756Z,99757.64
2023-01-31T03:30:43.578Z,99756.38
2023-01-31T03:33:17.416Z,99755.77
2023-01-31T03:35:49.023Z,99752.31
2023-01-31T03:38:28.080Z,99757.60
2023-01-31T03:41:04.734Z,99764.85
2023-01-31T03:43:54.683Z,99764.17
2023-01-31T03:46:29.998Z,99760.08
2023-01-31T03:48:58.259Z,99757.66
2023-01-31T03:51:28.893Z,99767.80
2023-01-31T03:53:59.812Z,99769.79
2023-01-31T03:56:34.066Z,99771.80
2023-01-31T03:59:05.086Z,99773.69
2023-01-31T04:01:34.973Z,99782.04
2023-01-31T04:04:07.671Z,99780.64
2023-01-31T04:06:36.033Z,99785.05
2023-01-31T04:09:05.184Z,99786.53
2023-01-31T04:11:37.636Z,99789.05
2023-01-31T04:14:05.719Z,99795.61
2023-01-31T04:16:34.456Z,99793.81
2023-01-31T04:19:02.793Z,99791.75
2023-01-31T04:21:30.837Z,99787.62
2023-01-31T04:23:58.776Z,99790.95
2023-01-31T04:26:27.711Z,99794.04
2023-01-31T04:28:55.668Z,99796.60
2023-01-31T04:31:23.644Z,99795.66
2023-01-31T04:33:51.797Z,99792.70
2023-01-31T04:36:20.043Z,99798.30
2023-01-31T04:38:47.985Z,99797.94
2023-01-31T04:41:16.114Z,99797.66
2023-01-31T04:43:44.132Z,99802.85
2023-01-31T04:46:12.211Z,99802.80
2023-01-31T04:48:41.552Z,99806.48
2023-01-31T04:51:09.767Z,99805.52
2023-01-31T04:53:38.328Z,99807.02
2023-01-31T04:56:06.983Z,99803.36
2023-01-31T04:58:35.616Z,99803.24
2023-01-31T05:01:03.585Z,99800.08
2023-01-31T05:03:31.872Z,99803.50
2023-01-31T05:06:00.269Z,99803.02
2023-01-31T05:08:29.585Z,99802.83
2023-01-31T05:11:04.179Z,99806.24
2023-01-31T05:13:33.338Z,99807.77
2023-01-31T05:16:01.343Z,99808.16
2023-01-31T05:18:29.866Z,99805.31
2023-01-31T05:21:00.284Z,99806.29
2023-01-31T05:23:28.206Z,99808.17
2023-01-31T05:25:57.338Z,99808.98
2023-01-31T05:28:26.411Z,99812.14
2023-01-31T05:30:54.714Z,99816.58
2023-01-31T05:33:23.446Z,99815.27
2023-01-31T05:35:51.751Z,99817.24
2023-01-31T05:38:19.891Z,99820.65
2023-01-31T05:40:50.061Z,99823.30
2023-01-31T05:43:18.215Z,99825.39
2023-01-31T05:45:48.441Z,99820.69
2023-01-31T05:48:17.161Z,99821.05
2023-01-31T05:50:46.187Z,99818.03
2023-01-31T05:53:14.153Z,99820.59
2023-01-31T05:55:42.158Z,99823.27
2023-01-31T05:58:10.173Z,99824.26
2023-01-31T06:00:38.499Z,99825.27
2023-01-31T06:03:06.668Z,99827.64
2023-01-31T08:14:27.670Z,99846.98
2023-01-31T08:16:55.313Z,99845.02
2023-01-31T08:19:23.816Z,99848.55
2023-01-31T08:21:50.606Z,99854.45
2023-01-31T08:24:17.328Z,99854.95
2023-01-31T08:26:44.467Z,99857.88
2023-01-31T08:29:11.487Z,99859.30
2023-01-31T08:31:39.909Z,99864.73
2023-01-31T08:34:06.611Z,99858.15
2023-01-31T08:36:35.243Z,99853.33
2023-01-31T08:39:02.169Z,99856.17
2023-01-31T08:41:29.542Z,99854.65
2023-01-31T08:43:58.824Z,99852.54
2023-01-31T08:46:35.949Z,99853.55
2023-01-31T08:49:04.388Z,99845.37
2023-01-31T08:51:31.657Z,99842.73
2023-01-31T08:53:58.281Z,99844.09
2023-01-31T08:56:25.618Z,99839.41
2023-01-31T08:58:52.936Z,99839.43
2023-01-31T09:01:20.052Z,99832.83
2023-01-31T09:03:46.980Z,99833.79
2023-01-31T09:06:15.455Z,99836.17
2023-01-31T09:08:42.282Z,99838.34
2023-01-31T09:11:09.247Z,99836.58
2023-01-31T09:13:37.035Z,99834.39
2023-01-31T09:16:05.485Z,99833.10
2023-01-31T09:18:33.860Z,99829.19
2023-01-31T09:21:08.024Z,99829.11
2023-01-31T09:23:35.243Z,99822.54
2023-01-31T09:26:02.615Z,99821.70
2023-01-31T09:28:29.954Z,99824.99
2023-01-31T09:31:03.342Z,99824.02
2023-01-31T09:33:32.286Z,99821.67
2023-01-31T09:36:01.238Z,99818.64
2023-01-31T09:38:28.666Z,99817.94
2023-01-31T09:40:55.890Z,99816.13
2023-01-31T09:43:26.220Z,99818.93
2023-01-31T09:45:54.314Z,99824.05
2023-01-31T09:48:23.629Z,99828.58
2023-01-31T09:50:53.560Z,99831.58
2023-01-31T09:53:23.396Z,99833.31
2023-01-31T09:56:00.130Z,99833.52
2023-01-31T09:58:45.965Z,99831.66
2023-01-31T10:01:15.616Z,99826.20
2023-01-31T10:04:04.466Z,99828.45
2023-01-31T10:06:38.613Z,99827.31
2023-01-31T10:09:10.117Z,99827.86
2023-01-31T10:11:41.093Z,99829.00
2023-01-31T10:14:10.825Z,99818.70
2023-01-31T10:16:41.197Z,99815.89
2023-01-31T10:19:16.592Z,99819.98
2023-01-31T10:21:45.607Z,99819.27
2023-01-31T10:24:37.422Z,99820.15
2023-01-31T10:27:07.379Z,99819.63
2023-01-31T10:29:45.160Z,99815.95
2023-01-31T10:32:20.270Z,99813.61
2023-01-31T10:34:51.727Z,99813.80
2023-01-31T10:37:42.671Z,99815.69
2023-01-31T10:40:19.098Z,99813.71
2023-01-31T10:42:49.480Z,99811.36
2023-01-31T10:45:23.359Z,99800.98
2023-01-31T10:47:51.828Z,99802.54
2023-01-31T10:50:33.677Z,99801.08
2023-01-31T10:53:29.778Z,99793.23
2023-01-31T11:03:32.940Z,99803.66
2023-01-31T11:06:01.509Z,99812.09
2023-01-31T11:08:33.132Z,99813.34
2023-01-31T11:11:09.317Z,99815.64
2023-01-31T11:13:39.117Z,99818.02
2023-01-31T11:16:11.456Z,99814.50
2023-01-31T11:18:47.974Z,99809.78
2023-01-31T11:21:20.788Z,99807.38
2023-01-31T11:23:48.813Z,99805.69
2023-01-31T11:26:29.051Z,99805.75
2023-01-31T11:28:57.265Z,99806.98
2023-01-31T11:31:33.940Z,99811.34
2023-01-31T11:34:04.244Z,99808.98
2023-01-31T11:36:34.212Z,99811.40
2023-01-31T11:39:05.826Z,99810.77
2023-01-31T11:41:37.538Z,99809.61
2023-01-31T11:44:16.738Z,99809.66
2023-01-31T11:46:44.703Z,99812.72
2023-01-31T11:49:20.304Z,99808.69
2023-01-31T11:51:48.797Z,99803.61
2023-01-31T11:54:21.842Z,99804.31
2023-01-31T11:56:50.029Z,99804.29
2023-01-31T11:59:20.863Z,99805.59
2023-01-31T12:01:54.023Z,99806.53
2023-01-31T12:04:26.449Z,99802.71
2023-01-31T14:13:35.694Z,99845.55
2023-01-31T14:16:04.239Z,99844.95
2023-01-31T14:18:42.149Z,99850.22
2023-01-31T14:21:35.038Z,99847.95
2023-01-31T14:24:03.538Z,99848.69
2023-01-31T14:26:42.327Z,99852.73
2023-01-31T14:29:25.265Z,99853.51
2023-01-31T14:31:53.213Z,99855.18
2023-01-31T14:34:26.115Z,99856.52
2023-01-31T14:37:00.490Z,99864.77
2023-01-31T14:39:52.477Z,99863.28
2023-01-31T14:42:27.928Z,99865.66
2023-01-31T14:44:58.791Z,99863.69
2023-01-31T14:47:28.969Z,99866.35
2023-01-31T14:50:01.502Z,99866.56
2023-01-31T14:52:53.454Z,99867.77
2023-01-31T14:55:35.443Z,99867.92
2023-01-31T14:58:02.135Z,99868.95
2023-01-31T15:00:37.224Z,99870.10
2023-01-31T15:03:03.965Z,99871.82
2023-01-31T15:05:36.981Z,99871.98
2023-01-31T15:08:26.743Z,99871.77
2023-01-31T15:11:13.495Z,99873.23
2023-01-31T15:13:54.270Z,99874.49
2023-01-31T15:16:35.001Z,99878.45
2023-01-31T15:19:14.352Z,99878.53
2023-01-31T15:22:10.612Z,99879.80
2023-01-31T15:24:40.404Z,99880.61
2023-01-31T15:27:12.923Z,99882.13
2023-01-31T15:29:58.226Z,99884.88
2023-01-31T15:32:34.935Z,99886.84
2023-01-31T15:35:11.382Z,99890.33
2023-01-31T15:37:38.059Z,99887.75
2023-01-31T15:40:18.196Z,99888.91
2023-01-31T15:42:44.896Z,99889.50
2023-01-31T15:45:13.015Z,99889.95
2023-01-31T15:47:39.619Z,99888.05
2023-01-31T15:50:18.256Z,99885.83
2023-01-31T15:52:45.115Z,99885.02
2023-01-31T15:55:13.487Z,99889.40
2023-01-31T15:57:56.504Z,99890.70
2023-01-31T16:00:29.456Z,99889.68
2023-01-31T16:03:02.482Z,99891.23
2023-01-31T16:05:38.918Z,99891.78
2023-01-31T16:08:32.269Z,99888.44
2023-01-31T16:11:06.360Z,99887.70
2023-01-31T16:13:39.534Z,99892.23
2023-01-31T16:16:09.800Z,99892.43
2023-01-31T16:18:37.255Z,99895.34
2023-01-31T16:21:38.827Z,99898.09
2023-01-31T16:24:13.258Z,99896.20
2023-01-31T16:26:55.358Z,99899.81
2023-01-31T16:29:23.972Z,99905.58
2023-01-31T16:31:52.594Z,99904.72
2023-01-31T16:34:29.975Z,99909.46
2023-01-31T16:37:03.115Z,99909.45
2023-01-31T16:39:35.108Z,99908.96
2023-01-31T16:42:07.156Z,99909.27
2023-01-31T16:44:35.980Z,99909.34
2023-01-31T16:47:04.143Z,99912.58
2023-01-31T16:49:35.463Z,99912.00
2023-01-31T16:52:17.014Z,99911.83
2023-01-31T16:54:48.635Z,99914.18
2023-01-31T16:57:37.577Z,99915.58
2023-01-31T17:00:07.463Z,99914.45
2023-01-31T17:02:39.254Z,99912.87
2023-01-31T17:05:16.235Z,99913.89
2023-01-31T17:07:43.427Z,99913.52
2023-01-31T17:10:13.554Z,99910.80
2023-01-31T17:12:40.516Z,99912.38
2023-01-31T17:15:15.694Z,99915.45
2023-01-31T17:17:43.378Z,99914.39
2023-01-31T17:20:13.718Z,99913.17
2023-01-31T17:22:42.242Z,99913.39
2023-01-31T17:25:21.933Z,99920.48
2023-01-31T17:27:49.228Z,99915.95
2023-01-31T17:30:18.536Z,99923.55
2023-01-31T17:32:45.672Z,99925.42
2023-01-31T17:35:20.233Z,99927.61
2023-01-31T17:37:47.389Z,99929.46
2023-01-31T17:40:14.165Z,99922.48
2023-01-31T17:42:41.697Z,99925.73
2023-01-31T17:45:13.588Z,99922.35
2023-01-31T17:47:40.676Z,99929.20
2023-01-31T17:50:09.399Z,99928.26
2023-01-31T17:52:37.020Z,99927.94
2023-01-31T17:55:04.235Z,99925.92
2023-01-31T17:57:35.005Z,99925.48
2023-01-31T18:00:01.964Z,99924.73
2023-01-31T18:02:33.565Z,99924.73
2023-01-31T18:05:00.194Z,99924.30
2023-01-31T18:07:26.785Z,99924.23
2023-01-31T18:09:54.077Z,99921.62
2023-01-31T18:12:20.665Z,99920.77
2023-01-31T18:14:47.258Z,99920.11
2023-01-31T18:17:14.460Z,99921.89
2023-01-31T18:19:41.208Z,99922.39
2023-01-31T18:22:07.843Z,99922.20
2023-01-31T18:24:34.649Z,99923.41
2023-01-31T18:27:01.580Z,99922.40
2023-01-31T18:29:29.111Z,99924.29
2023-01-31T18:31:57.313Z,99917.55
2023-01-31T18:34:24.799Z,99917.31
2023-01-31T18:36:52.109Z,99918.34
2023-01-31T18:39:19.122Z,99918.83
2023-01-31T18:41:45.738Z,99913.25
2023-01-31T18:44:12.423Z,99909.24
2023-01-31T18:46:39.089Z,99904.40
2023-01-31T18:49:05.968Z,99903.20
2023-01-31T18:51:33.121Z,99905.05
2023-01-31T18:54:00.187Z,99906.52
2023-01-31T18:56:26.939Z,99907.57
2023-01-31T18:58:53.842Z,99907.34
2023-01-31T19:01:22.409Z,99913.66
2023-01-31T19:03:52.463Z,99908.57
2023-01-31T19:06:20.787Z,99915.95
2023-01-31T19:08:48.557Z,99910.92
2023-01-31T19:11:16.100Z,99914.35
2023-01-31T19:13:43.929Z,99919.10
2023-01-31T19:16:12.894Z,99919.23
2023-01-31T19:18:39.815Z,99923.15
2023-01-31T19:21:17.021Z,99923.29
2023-01-31T19:23:44.152Z,99915.70
2023-01-31T19:26:11.609Z,99918.59
2023-01-31T19:28:39.003Z,99916.38
2023-01-31T19:31:06.907Z,99921.11
2023-01-31T19:33:35.770Z,99918.63
2023-01-31T19:36:16.611Z,99918.14
2023-01-31T19:38:44.296Z,99916.96
2023-01-31T19:41:16.948Z,99918.36
2023-01-31T19:43:47.605Z,99917.86
2023-01-31T19:46:14.239Z,99919.08
2023-01-31T19:48:41.225Z,99918.20
2023-01-31T19:51:15.591Z,99917.14
2023-01-31T19:53:42.817Z,99913.89
2023-01-31T19:56:09.485Z,99910.58
2023-01-31T19:58:36.785Z,99910.23
2023-01-31T20:01:05.749Z,99905.87
2023-01-31T20:03:32.833Z,99906.23
2023-01-31T20:06:10.064Z,99913.36
2023-01-31T20:08:37.919Z,99910.80
2023-01-31T20:11:07.597Z,99910.23
2023-01-31T20:13:35.570Z,99911.96
2023-01-31T20:16:07.459Z,99911.83
2023-01-31T20:18:37.460Z,99909.13
2023-01-31T20:21:05.453Z,99907.77
2023-01-31T20:23:32.440Z,99908.68
2023-01-31T20:25:59.757Z,99907.71
2023-01-31T20:28:26.652Z,99909.19
2023-01-31T20:30:53.611Z,99909.30
2023-01-31T20:33:20.573Z,99914.98
2023-01-31T20:35:47.254Z,99916.48
2023-01-31T20:38:16.590Z,99914.95
2023-01-31T20:40:51.579Z,99919.72
2023-01-31T20:43:18.660Z,99922.17
2023-01-31T20:45:46.100Z,99921.73
2023-01-31T20:48:12.964Z,99922.45
2023-01-31T20:50:39.671Z,99919.64
2023-01-31T20:53:14.729Z,99917.90
2023-01-31T20:55:41.337Z,99916.71
2023-01-31T20:58:10.081Z,99920.54
2023-01-31T21:00:36.965Z,99917.95
2023-01-31T21:03:03.738Z,99922.42
2023-01-31T21:05:30.834Z,99920.02
2023-01-31T21:07:58.118Z,99922.27
2023-01-31T21:10:28.071Z,99923.75
2023-01-31T21:12:55.050Z,99920.71
2023-01-31T21:15:21.927Z,99920.05
2023-01-31T21:17:48.603Z,99919.28
2023-01-31T21:20:15.294Z,99921.64
2023-01-31T21:22:42.390Z,99918.07
2023-01-31T21:25:09.022Z,99915.20
2023-01-31T21:27:36.125Z,99916.30
2023-01-31T21:30:03.489Z,99915.82
2023-01-31T21:32:30.327Z,99910.27
2023-01-31T21:34:56.984Z,99913.71
2023-01-31T21:37:24.075Z,99912.59
2023-01-31T21:39:50.770Z,99908.98
2023-01-31T21:42:19.038Z,99910.48
2023-01-31T21:44:46.862Z,99908.37
2023-01-31T21:47:14.236Z,99909.47
2023-01-31T21:49:40.854Z,99909.19
2023-01-31T21:52:08.131Z,99905.60
2023-01-31T21:54:34.860Z,99900.84
2023-01-31T21:57:01.458Z,99901.29
2023-01-31T21:59:28.340Z,99902.27
2023-01-31T22:01:55.750Z,99900.98
2023-01-31T22:04:22.732Z,99902.40
2023-01-31T22:06:50.463Z,99900.33
2023-01-31T22:09:17.533Z,99896.35
2023-01-31T22:11:46.841Z,99900.33
2023-01-31T22:14:14.918Z,99898.52
2023-01-31T22:16:41.599Z,99897.89
2023-01-31T22:19:10.044Z,99897.36
2023-01-31T22:21:36.908Z,99899.81
2023-01-31T22:24:05.573Z,99902.25
2023-01-31T22:26:36.407Z,99906.06
2023-01-31T22:29:04.875Z,99911.56
2023-01-31T22:31:32.545Z,99909.05
2023-01-31T22:33:59.938Z,99906.59
2023-01-31T22:36:26.781Z,99908.20
2023-01-31T22:38:54.015Z,99911.48
2023-01-31T22:41:20.854Z,99907.27
2023-01-31T22:43:51.664Z,99905.80
2023-01-31T22:46:20.919Z,99907.66
2023-01-31T22:48:50.391Z,99906.72
2023-01-31T22:51:22.229Z,99909.05
2023-01-31T22:53:49.533Z,99905.50
2023-01-31T22:56:19.195Z,99905.90
2023-01-31T22:58:46.077Z,99904.21
2023-01-31T23:01:13.071Z,99903.80
2023-01-31T23:03:40.068Z,99899.56
2023-01-31T23:06:06.953Z,99903.27
2023-01-31T23:08:33.632Z,99903.71
2023-01-31T23:11:11.460Z,99902.27
2023-01-31T23:13:38.713Z,99896.21
2023-01-31T23:16:08.902Z,99898.15
2023-01-31T23:18:35.592Z,99896.27
2023-01-31T23:21:06.424Z,99893.95
2023-01-31T23:23:34.175Z,99896.27
2023-01-31T23:26:01.153Z,99898.41
2023-01-31T23:28:30.146Z,99900.20
2023-01-31T23:30:57.213Z,99896.93
2023-01-31T23:33:24.208Z,99898.50
2023-01-31T23:35:53.293Z,99902.89
2023-01-31T23:38:19.915Z,99900.35
2023-01-31T23:40:51.646Z,99901.34
2023-01-31T23:43:19.224Z,99902.77
2023-01-31T23:45:45.856Z,99902.83
2023-01-31T23:48:12.587Z,99904.84
2023-01-31T23:50:39.274Z,99904.98
2023-01-31T23:53:05.938Z,99907.51
2023-01-31T23:55:32.978Z,99903.35
2023-01-31T23:57:59.829Z,99897.66
